METAR OBSERVATIONS
Looking Back 6 hours

  • KPBF 161253Z AUTO 32004KT 10SM CLR 05/04 A3027 RMK AO2 SLP249 T00500039 =
  • KPBF 161153Z AUTO 31004KT 9SM CLR 05/04 A3026 RMK AO2 SLP246 T00500044 10083 20044 53015 =
  • KPBF 161053Z AUTO 31003KT 7SM CLR 06/05 A3023 RMK AO2 SLP238 T00560050 =
  • KPBF 161031Z AUTO 00000KT 3SM BR CLR 06/04 A3023 RMK AO2 T00560044 =
  • KPBF 161014Z AUTO 00000KT 1 1/4SM BR FEW002 06/04 A3022 RMK AO2 VIS 1/2V3 T00560044 =
  • KPBF 161012Z AUTO 00000KT 3/4SM BR VV002 05/04 A3022 RMK AO2 T00500044 =
  • KPBF 161002Z AUTO 31003KT 1/4SM FG VV002 05/04 A3022 RMK AO2 T00500044 =
  • KPBF 160953Z AUTO 00000KT 1/4SM FG CLR 06/04 A3021 RMK AO2 SLP231 T00560044 =
  • KPBF 160945Z AUTO 00000KT 1/2SM FG CLR 05/04 A3021 RMK AO2 T00500044 =
  • KPBF 160935Z AUTO 00000KT 1 3/4SM BR CLR 06/05 A3021 RMK AO2 VIS 3/4V4 T00610050 =
  • KPBF 160853Z AUTO 00000KT 8SM CLR 07/06 A3021 RMK AO2 SLP231 T00670056 53011 =
  • KPBF 160753Z AUTO 30004KT 10SM CLR 07/06 A3020 RMK AO2 SLP228 T00720061 =
    ________________________________________